Time;durP1;ratioP1;P1;durP2;ratioP2;P2;SDS_P1;SDS_P2;PMS_P1;PMS_P2;Temp;Humidity;BMP_temperature;BMP_pressure;BME280_temperature;BME280_humidity;BME280_pressure;Samples;Min_cycle;Max_cycle;Signal;HPM_P1;HPM_P2
2021/01/16 00:01:47;;;;;;;21.50;9.40;;;0.50;99.90;;;;;;5009353;28;20025;-64
2021/01/16 00:04:12;;;;;;;23.05;9.55;;;0.60;99.90;;;;;;5009202;28;20113;-65
2021/01/16 00:06:38;;;;;;;27.15;10.35;;;0.50;99.90;;;;;;5008712;28;20547;-64
2021/01/16 00:09:04;;;;;;;23.23;9.75;;;0.50;99.90;;;;;;5009022;28;20068;-64
2021/01/16 00:11:30;;;;;;;23.48;9.82;;;0.50;99.90;;;;;;5008067;28;20037;-64
2021/01/16 00:13:55;;;;;;;25.48;10.75;;;0.50;99.90;;;;;;5008449;28;20104;-64
2021/01/16 00:16:21;;;;;;;23.02;9.95;;;0.60;99.90;;;;;;5008462;28;20129;-64
2021/01/16 00:18:46;;;;;;;23.13;10.02;;;0.60;99.90;;;;;;5008682;28;20080;-65
2021/01/16 00:21:12;;;;;;;24.48;10.15;;;0.60;99.90;;;;;;5008539;28;20037;-64
2021/01/16 00:23:37;;;;;;;23.40;9.80;;;0.60;99.90;;;;;;5009503;28;20041;-65
2021/01/16 00:26:03;;;;;;;25.77;10.48;;;0.50;99.90;;;;;;5009379;28;20033;-65
2021/01/16 00:28:32;;;;;;;23.20;11.48;;;0.60;99.90;;;;;;5009148;28;20394;-65
2021/01/16 00:30:59;;;;;;;24.33;10.48;;;0.60;99.90;;;;;;5008232;28;20029;-64
2021/01/16 00:33:27;;;;;;;23.65;10.82;;;0.60;99.90;;;;;;5009819;28;20405;-64
2021/01/16 00:35:54;;;;;;;23.58;10.88;;;0.60;99.90;;;;;;5009661;28;20373;-64
2021/01/16 00:38:21;;;;;;;22.63;10.38;;;0.60;99.90;;;;;;5008329;28;20027;-64
2021/01/16 00:40:47;;;;;;;22.15;9.52;;;0.50;99.90;;;;;;5009947;28;20025;-65
2021/01/16 00:43:15;;;;;;;23.75;11.32;;;0.50;99.90;;;;;;5010326;28;20033;-65
2021/01/16 00:45:41;;;;;;;;;;;0.60;99.90;;;;;;5009953;28;20026;-64
2021/01/16 00:48:15;;;;;;;23.80;10.82;;;0.50;99.90;;;;;;5009344;28;19921;-64
2021/01/16 00:50:43;;;;;;;24.23;9.95;;;0.50;99.90;;;;;;5001875;28;20137;-66
2021/01/16 00:53:09;;;;;;;23.80;10.35;;;0.50;99.90;;;;;;5029614;23;20129;-64
2021/01/16 00:55:35;;;;;;;26.73;11.20;;;0.60;99.90;;;;;;5008077;28;20057;-65
2021/01/16 00:58:11;;;;;;;28.65;11.32;;;0.60;99.90;;;;;;5006760;28;20080;-64
2021/01/16 01:00:38;;;;;;;26.48;11.32;;;0.60;99.90;;;;;;5005400;28;20509;-65
2021/01/16 01:03:04;;;;;;;26.40;10.32;;;0.50;99.90;;;;;;5006948;28;20029;-63
2021/01/16 01:05:30;;;;;;;27.05;11.20;;;0.50;99.90;;;;;;5006496;28;20454;-65
2021/01/16 01:07:56;;;;;;;23.38;10.02;;;0.60;99.90;;;;;;5008391;28;20163;-63
2021/01/16 01:10:37;;;;;;;27.08;10.77;;;0.50;99.90;;;;;;5008139;28;20074;-65
2021/01/16 01:13:04;;;;;;;27.83;11.50;;;0.60;99.90;;;;;;5009956;28;20026;-65
2021/01/16 01:15:29;;;;;;;29.20;11.80;;;0.50;99.90;;;;;;5008607;28;20033;-65
2021/01/16 01:18:00;;;;;;;26.98;11.90;;;0.50;99.90;;;;;;5008251;28;20034;-65
2021/01/16 01:20:26;;;;;;;25.60;10.95;;;0.50;99.90;;;;;;5007380;28;20030;-64
2021/01/16 01:22:52;;;;;;;27.58;10.25;;;0.60;99.90;;;;;;5011656;28;20436;-65
2021/01/16 01:25:18;;;;;;;25.27;10.85;;;0.60;99.90;;;;;;5010599;28;20120;-64
2021/01/16 01:27:51;;;;;;;23.92;10.00;;;0.60;99.90;;;;;;5011982;28;20034;-63
2021/01/16 01:30:17;;;;;;;24.95;11.82;;;0.60;99.90;;;;;;5013545;28;20046;-63
2021/01/16 01:32:43;;;;;;;26.55;10.25;;;0.60;99.90;;;;;;5013777;28;20093;-63
2021/01/16 01:35:10;;;;;;;25.80;10.95;;;0.60;99.90;;;;;;5012557;28;20070;-64
2021/01/16 01:37:42;;;;;;;27.55;10.70;;;0.60;99.90;;;;;;5013623;28;20030;-63
2021/01/16 01:40:10;;;;;;;26.13;11.18;;;0.60;99.90;;;;;;5011924;28;20026;-65
2021/01/16 01:42:36;;;;;;;25.73;10.13;;;0.60;99.90;;;;;;5012358;28;20072;-65
2021/01/16 01:45:07;;;;;;;24.77;10.48;;;0.60;99.90;;;;;;5012473;28;20370;-65
2021/01/16 01:47:35;;;;;;;24.92;11.07;;;0.50;99.90;;;;;;5013583;28;20029;-63
2021/01/16 01:50:02;;;;;;;24.75;11.23;;;0.50;99.90;;;;;;5012521;28;20506;-65
2021/01/16 01:52:29;;;;;;;24.80;9.85;;;0.50;99.90;;;;;;5013524;28;20034;-66
2021/01/16 01:54:57;;;;;;;25.58;11.48;;;0.40;99.90;;;;;;5013546;28;20018;-64
2021/01/16 01:57:25;;;;;;;24.77;11.85;;;0.40;99.90;;;;;;5012255;28;20026;-65
2021/01/16 01:59:54;;;;;;;28.20;12.07;;;0.50;99.90;;;;;;5011276;28;20026;-65
2021/01/16 02:02:21;;;;;;;23.73;10.18;;;0.50;99.90;;;;;;5027341;28;20030;-63
2021/01/16 02:04:49;;;;;;;25.77;10.55;;;0.40;99.90;;;;;;5012126;28;20025;-63
2021/01/16 02:07:26;;;;;;;24.27;10.32;;;0.40;99.90;;;;;;5012028;28;20120;-65
2021/01/16 02:09:53;;;;;;;24.25;10.68;;;0.50;99.90;;;;;;5012795;28;20386;-65
2021/01/16 02:12:21;;;;;;;24.10;10.52;;;0.40;99.90;;;;;;5013149;28;20488;-65
2021/01/16 02:14:57;;;;;;;25.33;10.85;;;0.40;99.90;;;;;;5013183;28;20110;-64
2021/01/16 02:17:25;;;;;;;26.85;10.75;;;0.50;99.90;;;;;;5013064;28;20030;-62
2021/01/16 02:20:13;;;;;;;25.75;11.18;;;0.40;99.90;;;;;;5011257;28;20030;-62
2021/01/16 02:23:11;;;;;;;25.70;10.23;;;0.40;99.90;;;;;;5012968;28;20021;-64
2021/01/16 02:25:36;;;;;;;;;;;0.40;99.90;;;;;;4979253;28;20065;-65
2021/01/16 02:28:05;;;;;;;24.38;10.18;;;0.50;99.90;;;;;;5011378;28;19944;-64
2021/01/16 02:30:34;;;;;;;24.95;10.07;;;0.50;99.90;;;;;;5012311;28;20100;-66
2021/01/16 02:33:04;;;;;;;26.88;12.27;;;0.50;99.90;;;;;;5012573;28;20108;-65
2021/01/16 02:35:32;;;;;;;25.63;10.07;;;0.40;99.90;;;;;;5011257;28;20400;-64
2021/01/16 02:38:28;;;;;;;27.77;10.35;;;0.40;99.90;;;;;;5011175;28;20041;-64
2021/01/16 02:41:00;;;;;;;24.10;10.05;;;0.40;99.90;;;;;;5012539;28;20030;-64
2021/01/16 02:43:39;;;;;;;28.30;11.35;;;0.40;99.90;;;;;;5012638;28;20456;-65
2021/01/16 02:46:16;;;;;;;25.75;11.70;;;0.40;99.90;;;;;;5011136;28;20030;-64
2021/01/16 02:49:06;;;;;;;25.52;11.07;;;0.40;99.90;;;;;;5012032;28;20453;-64
2021/01/16 02:51:46;;;;;;;24.33;10.68;;;0.40;99.90;;;;;;5012611;28;20049;-63
2021/01/16 02:54:12;;;;;;;27.35;11.10;;;0.30;99.90;;;;;;5010851;28;20057;-64
2021/01/16 02:56:38;;;;;;;24.85;10.68;;;0.30;99.90;;;;;;5012275;28;20038;-64
2021/01/16 02:59:05;;;;;;;25.05;11.52;;;0.40;99.90;;;;;;5011493;28;20097;-65
2021/01/16 03:01:34;;;;;;;27.75;11.80;;;0.40;99.90;;;;;;5012047;28;20022;-65
2021/01/16 03:04:00;;;;;;;26.73;11.15;;;0.50;99.90;;;;;;5012173;28;20030;-64
2021/01/16 03:06:26;;;;;;;27.00;11.57;;;0.50;99.90;;;;;;5010321;28;20113;-64
2021/01/16 03:08:56;;;;;;;29.95;12.27;;;0.50;99.90;;;;;;5011259;28;20510;-64
2021/01/16 03:11:24;;;;;;;24.08;11.23;;;0.50;99.90;;;;;;5012104;28;20053;-65
2021/01/16 03:13:50;;;;;;;25.30;10.97;;;0.50;99.90;;;;;;5012020;28;20092;-65
2021/01/16 03:16:26;;;;;;;26.52;10.98;;;0.60;99.90;;;;;;5010625;28;20033;-65
2021/01/16 03:18:56;;;;;;;26.05;10.80;;;0.50;99.90;;;;;;5009823;28;20414;-63
2021/01/16 03:21:22;;;;;;;26.73;12.23;;;0.50;99.90;;;;;;5011708;28;20091;-64
2021/01/16 03:23:47;;;;;;;24.20;10.13;;;0.50;99.90;;;;;;5011878;28;20014;-63
2021/01/16 03:26:13;;;;;;;23.77;10.13;;;0.60;99.90;;;;;;5011642;28;20025;-65
2021/01/16 03:28:39;;;;;;;26.58;11.18;;;0.50;99.90;;;;;;5009830;28;20068;-65
2021/01/16 03:31:04;;;;;;;25.10;10.98;;;0.50;99.90;;;;;;5011829;28;20022;-64
2021/01/16 03:33:30;;;;;;;26.02;12.55;;;0.50;99.90;;;;;;5011579;28;20022;-64
2021/01/16 03:35:56;;;;;;;25.45;11.55;;;0.50;99.90;;;;;;5010080;28;20043;-64
2021/01/16 03:38:21;;;;;;;28.15;12.07;;;0.40;99.90;;;;;;5009908;28;20046;-64
2021/01/16 03:40:47;;;;;;;27.45;11.70;;;0.40;99.90;;;;;;5011267;28;20022;-64
2021/01/16 03:43:14;;;;;;;32.72;13.73;;;0.50;99.90;;;;;;5010942;28;20365;-64
2021/01/16 03:45:40;;;;;;;27.00;11.00;;;0.40;99.90;;;;;;5011309;28;20105;-65
2021/01/16 03:48:06;;;;;;;26.75;11.60;;;0.40;99.90;;;;;;5010959;28;20121;-64
2021/01/16 03:50:32;;;;;;;30.20;11.82;;;0.40;99.90;;;;;;5009163;28;20385;-64
2021/01/16 03:52:58;;;;;;;29.02;12.35;;;0.40;99.90;;;;;;5009744;28;20485;-64
2021/01/16 03:55:24;;;;;;;28.25;12.30;;;0.40;99.90;;;;;;5009379;28;20068;-63
2021/01/16 03:57:50;;;;;;;26.40;12.20;;;0.40;99.90;;;;;;5011042;28;20026;-66
2021/01/16 04:00:18;;;;;;;28.38;12.80;;;0.50;99.90;;;;;;5010897;28;20450;-63
2021/01/16 04:02:44;;;;;;;25.80;11.75;;;0.40;99.90;;;;;;5011205;28;20049;-61
2021/01/16 04:05:10;;;;;;;27.70;11.38;;;0.40;99.90;;;;;;5009734;28;20033;-63
2021/01/16 04:07:36;;;;;;;25.45;10.90;;;0.40;99.90;;;;;;5010960;28;20033;-65
2021/01/16 04:10:03;;;;;;;30.35;13.88;;;0.40;99.90;;;;;;5011395;28;20026;-65
2021/01/16 04:12:29;;;;;;;25.10;11.57;;;0.40;99.90;;;;;;5010095;28;20026;-64
2021/01/16 04:14:56;;;;;;;26.92;11.60;;;0.40;99.90;;;;;;4993842;28;20080;-65
2021/01/16 04:17:21;;;;;;;25.38;11.20;;;0.40;99.90;;;;;;5010296;28;20069;-62
2021/01/16 04:19:48;;;;;;;24.92;11.45;;;0.40;99.90;;;;;;5009653;28;20029;-65
2021/01/16 04:22:14;;;;;;;24.27;11.25;;;0.40;99.90;;;;;;5011199;28;20030;-65
2021/01/16 04:24:39;;;;;;;25.02;10.32;;;0.30;99.90;;;;;;5011204;28;20064;-65
2021/01/16 04:27:06;;;;;;;23.83;10.57;;;0.30;99.90;;;;;;5011003;28;20040;-65
2021/01/16 04:29:31;;;;;;;26.80;11.40;;;0.40;99.90;;;;;;5010249;28;20358;-65
2021/01/16 04:31:57;;;;;;;25.38;11.02;;;0.30;99.90;;;;;;5010765;28;20040;-65
2021/01/16 04:34:22;;;;;;;25.15;10.73;;;0.30;99.90;;;;;;5010555;28;20040;-65
2021/01/16 04:36:49;;;;;;;27.05;11.70;;;0.40;99.90;;;;;;5010634;28;20038;-65
2021/01/16 04:39:15;;;;;;;27.58;10.60;;;0.40;99.90;;;;;;5009998;28;20100;-65
2021/01/16 04:41:45;;;;;;;27.20;12.13;;;0.30;99.90;;;;;;5009240;28;20117;-65
2021/01/16 04:44:12;;;;;;;25.58;10.80;;;0.40;99.90;;;;;;5009408;28;20026;-63
2021/01/16 04:46:39;;;;;;;28.30;11.70;;;0.40;99.90;;;;;;5009515;28;20525;-63
2021/01/16 04:49:06;;;;;;;23.98;10.45;;;0.40;99.90;;;;;;5008510;28;20054;-66
2021/01/16 04:51:33;;;;;;;25.25;10.95;;;0.40;99.90;;;;;;5010322;28;20026;-66
2021/01/16 04:54:00;;;;;;;25.60;10.27;;;0.40;99.90;;;;;;5010775;28;20022;-63
2021/01/16 04:56:30;;;;;;;25.92;11.20;;;0.40;99.90;;;;;;5012514;28;20555;-62
2021/01/16 04:58:56;;;;;;;22.27;9.90;;;0.40;99.90;;;;;;5012832;28;20458;-63
2021/01/16 05:01:26;;;;;;;27.02;11.57;;;0.40;99.90;;;;;;5013114;28;20092;-63
2021/01/16 05:03:52;;;;;;;28.90;11.30;;;0.40;99.90;;;;;;5014283;28;20050;-64
2021/01/16 05:06:18;;;;;;;24.52;10.20;;;0.40;99.90;;;;;;5012669;28;20057;-63
2021/01/16 05:08:45;;;;;;;26.73;11.35;;;0.40;99.90;;;;;;5012299;28;20026;-60
2021/01/16 05:11:34;;;;;;;25.50;10.45;;;0.40;99.90;;;;;;5014557;28;20029;-62
2021/01/16 05:14:12;;;;;;;29.35;11.27;;;0.40;99.90;;;;;;5014281;28;20049;-62
2021/01/16 05:16:56;;;;;;;25.37;10.23;;;0.40;99.90;;;;;;5012962;28;20025;-63
2021/01/16 05:19:28;;;;;;;27.25;11.75;;;0.50;99.90;;;;;;5012192;28;20272;-63
2021/01/16 05:21:55;;;;;;;26.77;11.00;;;0.50;99.90;;;;;;5014100;28;20489;-62
2021/01/16 05:24:21;;;;;;;24.83;10.48;;;0.40;99.90;;;;;;5014095;28;20463;-65
2021/01/16 05:27:03;;;;;;;23.92;10.75;;;0.40;99.90;;;;;;5013898;28;20034;-64
2021/01/16 05:29:30;;;;;;;24.85;10.23;;;0.40;99.90;;;;;;5011944;28;20018;-63
2021/01/16 05:31:57;;;;;;;24.42;10.82;;;0.40;99.90;;;;;;5012380;28;20040;-64
2021/01/16 05:34:24;;;;;;;24.33;10.68;;;0.40;99.90;;;;;;5012609;28;20091;-64
2021/01/16 05:36:50;;;;;;;27.00;11.70;;;0.40;99.90;;;;;;5013582;28;20087;-62
2021/01/16 05:39:18;;;;;;;25.02;9.88;;;0.30;99.90;;;;;;5011790;28;20029;-64
2021/01/16 05:41:45;;;;;;;23.25;10.65;;;0.30;99.90;;;;;;5013851;28;20032;-63
2021/01/16 05:44:11;;;;;;;24.30;10.55;;;0.30;99.90;;;;;;5013633;28;20034;-64
2021/01/16 05:46:41;;;;;;;25.50;10.98;;;0.30;99.90;;;;;;5012220;28;20022;-64
2021/01/16 05:49:07;;;;;;;27.23;10.20;;;0.40;99.90;;;;;;5011672;28;20374;-63
2021/01/16 05:51:34;;;;;;;22.58;10.40;;;0.30;99.90;;;;;;5012051;28;20033;-63
2021/01/16 05:54:00;;;;;;;25.40;10.43;;;0.30;99.90;;;;;;5012247;28;20125;-64
2021/01/16 05:56:30;;;;;;;24.20;10.43;;;0.30;99.90;;;;;;5013562;28;20481;-63
2021/01/16 05:58:58;;;;;;;25.23;11.70;;;0.30;99.90;;;;;;5012793;28;20037;-63
2021/01/16 06:01:25;;;;;;;25.08;10.20;;;0.40;99.90;;;;;;5013162;28;20037;-63
2021/01/16 06:03:52;;;;;;;26.17;11.07;;;0.40;99.90;;;;;;5013159;28;20030;-63
2021/01/16 06:06:18;;;;;;;23.27;9.55;;;0.40;99.90;;;;;;5011630;28;20136;-63
2021/01/16 06:08:52;;;;;;;24.67;10.55;;;0.40;99.90;;;;;;5012137;28;20053;-65
2021/01/16 06:11:18;;;;;;;27.92;11.52;;;0.40;99.90;;;;;;5011512;28;20022;-63
2021/01/16 06:13:46;;;;;;;28.08;11.45;;;0.40;99.90;;;;;;5013255;28;20021;-63
2021/01/16 06:16:16;;;;;;;24.98;11.00;;;0.40;99.90;;;;;;5012949;28;20053;-64
2021/01/16 06:18:56;;;;;;;25.45;10.23;;;0.30;99.90;;;;;;5012276;28;20036;-57
2021/01/16 06:21:30;;;;;;;23.55;10.35;;;0.40;99.90;;;;;;5012999;28;20393;-63
2021/01/16 06:23:58;;;;;;;29.08;10.38;;;0.40;99.90;;;;;;5012944;28;20485;-64
2021/01/16 06:26:24;;;;;;;23.77;11.00;;;0.40;99.90;;;;;;5011686;28;20038;-65
2021/01/16 06:28:59;;;;;;;23.83;10.27;;;0.40;99.90;;;;;;5012138;28;20490;-65
2021/01/16 06:31:26;;;;;;;28.25;11.55;;;0.30;99.90;;;;;;5011424;28;20084;-64
2021/01/16 06:33:59;;;;;;;24.13;10.07;;;0.30;99.90;;;;;;5012755;28;20033;-64
2021/01/16 06:36:33;;;;;;;25.98;11.15;;;0.40;99.90;;;;;;5012830;28;20038;-64
2021/01/16 06:39:01;;;;;;;24.42;10.63;;;0.40;99.90;;;;;;5010756;28;20061;-63
2021/01/16 06:41:32;;;;;;;22.67;9.85;;;0.40;99.90;;;;;;5011282;28;20036;-64
2021/01/16 06:43:59;;;;;;;24.02;10.65;;;0.40;99.90;;;;;;5011362;28;20030;-64
2021/01/16 06:46:48;;;;;;;22.63;9.65;;;0.40;99.90;;;;;;5012596;28;20068;-64
2021/01/16 06:49:27;;;;;;;23.95;9.73;;;0.40;99.90;;;;;;5011036;28;20382;-64
2021/01/16 06:51:54;;;;;;;23.77;10.23;;;0.30;99.90;;;;;;5030454;23;20097;-63
2021/01/16 06:54:27;;;;;;;24.13;9.63;;;0.30;99.90;;;;;;5029857;28;20033;-65
2021/01/16 06:57:09;;;;;;;24.00;9.98;;;0.40;99.90;;;;;;5015587;28;20021;-64
2021/01/16 06:59:37;;;;;;;25.00;10.55;;;0.40;99.90;;;;;;5032742;28;20082;-64
2021/01/16 07:02:32;;;;;;;24.25;10.15;;;0.40;99.90;;;;;;4992305;28;20060;-64
2021/01/16 07:05:07;;;;;;;22.83;9.55;;;0.40;99.90;;;;;;4976790;28;20113;-65
2021/01/16 07:07:38;;;;;;;24.77;10.50;;;0.40;99.90;;;;;;4993625;28;20038;-64
2021/01/16 07:10:13;;;;;;;23.52;10.13;;;0.40;99.90;;;;;;4991799;28;20412;-64
2021/01/16 07:12:48;;;;;;;23.63;10.73;;;0.40;99.90;;;;;;4995841;28;20022;-64
2021/01/16 07:15:16;;;;;;;24.23;10.98;;;0.40;99.90;;;;;;4996039;28;20025;-65
2021/01/16 07:17:42;;;;;;;22.73;9.63;;;0.40;99.90;;;;;;5013310;28;20034;-64
2021/01/16 07:20:08;;;;;;;23.80;11.00;;;0.50;99.90;;;;;;5012005;28;20255;-64
2021/01/16 07:22:41;;;;;;;25.52;10.48;;;0.50;99.90;;;;;;4995235;28;20112;-64
2021/01/16 07:25:08;;;;;;;25.10;10.85;;;0.50;99.90;;;;;;5013066;28;20084;-64
2021/01/16 07:27:37;;;;;;;23.05;9.90;;;0.60;99.90;;;;;;4993955;28;20363;-65
2021/01/16 07:30:06;;;;;;;26.23;11.25;;;0.60;99.90;;;;;;4993188;28;20537;-65
2021/01/16 07:32:38;;;;;;;;;;;0.70;99.90;;;;;;4994051;28;20438;-64
2021/01/16 07:35:10;;;;;;;24.50;10.95;;;0.60;99.90;;;;;;4976203;28;20262;-65
2021/01/16 07:37:35;;;;;;;25.08;10.48;;;0.60;99.90;;;;;;4975337;28;20057;-62
2021/01/16 07:40:03;;;;;;;24.58;10.95;;;0.60;99.90;;;;;;4992755;28;20399;-65
2021/01/16 07:42:31;;;;;;;24.15;10.55;;;0.60;99.90;;;;;;4993115;28;20027;-64
2021/01/16 07:45:20;;;;;;;24.55;11.13;;;0.60;99.90;;;;;;4975962;28;20121;-66
2021/01/16 07:47:51;;;;;;;24.63;11.65;;;0.70;99.90;;;;;;4975420;28;20027;-63
2021/01/16 07:50:27;;;;;;;25.52;10.60;;;0.60;99.90;;;;;;4975817;28;20058;-63
2021/01/16 07:52:55;;;;;;;24.25;10.65;;;0.70;99.90;;;;;;4985432;28;20085;-64
2021/01/16 07:55:21;;;;;;;;;;;0.60;99.90;;;;;;4993716;28;20558;-65
2021/01/16 07:57:50;;;;;;;23.67;11.30;;;0.60;99.90;;;;;;4993127;28;19944;-66
2021/01/16 08:00:18;;;;;;;25.92;11.38;;;0.70;99.90;;;;;;4992798;28;20066;-64
2021/01/16 08:03:12;;;;;;;26.02;11.70;;;0.70;99.90;;;;;;4991552;28;20022;-64
2021/01/16 08:05:45;;;;;;;25.92;11.38;;;0.70;99.90;;;;;;4991807;28;20046;-65
2021/01/16 08:08:33;;;;;;;26.73;10.20;;;0.70;99.90;;;;;;4992667;28;20027;-64
2021/01/16 08:11:02;;;;;;;23.83;10.85;;;0.70;99.90;;;;;;4992911;28;20555;-63
2021/01/16 08:13:28;;;;;;;27.33;10.88;;;0.70;99.90;;;;;;4993141;28;20052;-64
2021/01/16 08:16:02;;;;;;;25.08;10.95;;;0.70;99.90;;;;;;4991604;28;20117;-64
2021/01/16 08:18:31;;;;;;;27.63;13.73;;;0.70;99.90;;;;;;4990915;28;20026;-64
2021/01/16 08:21:06;;;;;;;27.58;12.02;;;0.80;99.90;;;;;;4992604;28;20409;-64
2021/01/16 08:23:45;;;;;;;24.35;10.90;;;0.80;99.90;;;;;;4992924;28;20023;-64
2021/01/16 08:26:11;;;;;;;27.20;12.45;;;0.80;99.90;;;;;;4998669;28;20081;-64
2021/01/16 08:28:37;;;;;;;25.90;12.00;;;0.90;99.90;;;;;;5012053;28;20514;-64
2021/01/16 08:31:03;;;;;;;24.38;11.07;;;0.90;99.90;;;;;;5012161;28;20072;-64
2021/01/16 08:33:33;;;;;;;26.75;10.98;;;0.90;99.90;;;;;;4994783;28;20117;-64
2021/01/16 08:36:16;;;;;;;23.30;10.60;;;0.80;99.90;;;;;;4994752;28;20026;-64
2021/01/16 08:38:43;;;;;;;24.83;11.07;;;0.80;99.90;;;;;;4994209;28;20389;-64
2021/01/16 08:41:09;;;;;;;24.02;10.30;;;0.90;99.90;;;;;;4995207;28;20750;-65
2021/01/16 08:43:50;;;;;;;28.63;11.65;;;0.80;99.90;;;;;;5012118;28;20032;-64
2021/01/16 08:46:20;;;;;;;25.85;11.35;;;0.90;99.90;;;;;;4994512;28;20080;-65
2021/01/16 08:49:09;;;;;;;24.63;11.30;;;0.90;99.90;;;;;;4994120;28;20123;-64
2021/01/16 08:51:36;;;;;;;26.13;11.30;;;0.90;99.90;;;;;;5011746;28;20021;-64
2021/01/16 08:54:25;;;;;;;25.23;10.40;;;1.00;99.90;;;;;;4983296;28;20027;-64
2021/01/16 08:56:52;;;;;;;27.60;11.80;;;1.00;99.90;;;;;;4981778;28;20516;-62
2021/01/16 08:59:29;;;;;;;27.38;11.07;;;1.00;99.90;;;;;;4974200;28;20039;-62
2021/01/16 09:02:07;;;;;;;25.88;11.55;;;1.00;99.90;;;;;;4975004;28;20080;-62
2021/01/16 09:04:35;;;;;;;26.67;12.50;;;1.10;99.90;;;;;;4992412;28;20046;-57
2021/01/16 09:07:23;;;;;;;25.48;11.07;;;1.10;99.90;;;;;;4974316;28;20030;-58
2021/01/16 09:09:56;;;;;;;27.50;11.80;;;1.00;99.90;;;;;;4991720;28;20494;-59
2021/01/16 09:12:38;;;;;;;24.85;10.98;;;1.00;99.90;;;;;;4992014;28;20049;-59
2021/01/16 09:15:26;;;;;;;24.00;10.77;;;1.10;99.90;;;;;;4992185;28;20030;-51
2021/01/16 09:18:03;;;;;;;28.02;13.07;;;1.10;99.90;;;;;;4974694;28;20030;-56
2021/01/16 09:20:30;;;;;;;25.73;11.85;;;1.10;99.90;;;;;;4974076;28;20028;-61
2021/01/16 09:22:56;;;;;;;26.00;10.18;;;1.10;99.90;;;;;;4991641;28;20482;-57
2021/01/16 09:25:24;;;;;;;26.23;11.55;;;1.10;99.90;;;;;;4992326;28;20046;-58
2021/01/16 09:27:51;;;;;;;25.27;11.13;;;1.10;99.90;;;;;;4974972;28;20110;-58
2021/01/16 09:30:24;;;;;;;24.10;11.05;;;1.20;99.90;;;;;;4992245;28;20026;-58
2021/01/16 09:32:52;;;;;;;27.15;12.02;;;1.20;99.90;;;;;;4975079;28;20018;-59
2021/01/16 09:35:36;;;;;;;25.65;11.48;;;1.20;99.90;;;;;;4974933;28;20023;-58
2021/01/16 09:38:03;;;;;;;27.13;12.40;;;1.20;99.90;;;;;;4974741;28;20027;-57
2021/01/16 09:40:36;;;;;;;25.15;12.25;;;1.20;99.90;;;;;;4974137;28;20033;-60
2021/01/16 09:43:20;;;;;;;24.73;11.48;;;1.20;99.90;;;;;;4976500;28;20023;-60
2021/01/16 09:45:59;;;;;;;25.42;11.68;;;1.10;99.90;;;;;;4996291;28;20031;-53
2021/01/16 09:48:31;;;;;;;29.23;11.95;;;1.20;99.90;;;;;;4994896;28;20080;-59
2021/01/16 09:51:01;;;;;;;27.92;11.95;;;1.20;99.90;;;;;;4995144;28;20362;-65
2021/01/16 09:53:27;;;;;;;29.45;13.35;;;1.30;99.90;;;;;;4978078;28;20026;-57
2021/01/16 09:55:54;;;;;;;31.45;12.43;;;1.20;99.90;;;;;;5013800;28;20034;-60
2021/01/16 09:58:31;;;;;;;25.85;10.60;;;1.20;99.90;;;;;;5014151;28;20085;-62
2021/01/16 10:01:24;;;;;;;26.52;11.35;;;1.30;99.90;;;;;;5014636;28;20029;-61
2021/01/16 10:03:52;;;;;;;29.88;12.85;;;1.30;99.90;;;;;;5014587;28;20033;-60
2021/01/16 10:06:19;;;;;;;29.77;13.40;;;1.30;99.90;;;;;;5011391;28;20751;-61
2021/01/16 10:08:49;;;;;;;31.13;12.05;;;1.30;99.90;;;;;;4995338;28;20041;-59
2021/01/16 10:11:45;;;;;;;27.63;11.95;;;1.30;99.90;;;;;;5012878;28;20033;-59
2021/01/16 10:14:15;;;;;;;24.60;11.65;;;1.40;99.90;;;;;;5014583;28;20057;-59
2021/01/16 10:16:42;;;;;;;25.30;11.40;;;1.40;99.90;;;;;;5012820;28;20504;-57
2021/01/16 10:19:12;;;;;;;24.02;9.82;;;1.50;99.90;;;;;;5012311;28;20034;-59
2021/01/16 10:21:53;;;;;;;23.00;9.80;;;1.50;99.90;;;;;;5004786;28;20026;-57
2021/01/16 10:24:20;;;;;;;26.35;11.48;;;1.50;99.90;;;;;;4996505;28;20034;-57
2021/01/16 10:26:50;;;;;;;27.20;11.23;;;1.50;99.90;;;;;;5013121;28;20036;-56
2021/01/16 10:29:30;;;;;;;29.02;11.27;;;1.50;99.90;;;;;;5003618;28;20034;-56
2021/01/16 10:32:23;;;;;;;25.33;10.38;;;1.60;99.90;;;;;;5013986;28;20026;-56
2021/01/16 10:34:57;;;;;;;24.15;10.27;;;1.50;99.90;;;;;;5006151;28;20034;-60
2021/01/16 10:37:24;;;;;;;27.48;11.05;;;1.50;99.90;;;;;;5014093;28;20026;-62
2021/01/16 10:39:50;;;;;;;24.73;11.30;;;1.50;99.90;;;;;;5012219;28;20117;-53
2021/01/16 10:42:17;;;;;;;28.08;11.23;;;1.50;99.90;;;;;;5014007;28;20030;-59
2021/01/16 10:44:43;;;;;;;32.20;11.50;;;1.50;99.90;;;;;;5012492;28;20033;-58
2021/01/16 10:47:32;;;;;;;26.83;10.50;;;1.50;99.90;;;;;;5012385;28;20025;-60
2021/01/16 10:50:31;;;;;;;22.60;10.13;;;1.60;99.90;;;;;;5008008;28;20018;-52
2021/01/16 10:53:01;;;;;;;22.58;9.45;;;1.60;99.90;;;;;;5002122;28;20038;-60
2021/01/16 10:55:56;;;;;;;24.77;9.57;;;1.60;99.90;;;;;;4995980;28;20022;-60
2021/01/16 10:58:28;;;;;;;25.10;10.13;;;1.70;99.90;;;;;;5013316;28;20029;-58
2021/01/16 11:00:59;;;;;;;26.35;9.95;;;1.70;99.90;;;;;;4995808;28;20035;-57
2021/01/16 11:03:27;;;;;;;30.83;11.55;;;1.60;99.90;;;;;;5013534;28;20643;-60
2021/01/16 11:05:56;;;;;;;26.25;10.98;;;1.60;99.90;;;;;;4994848;28;20064;-59
2021/01/16 11:08:39;;;;;;;24.33;11.10;;;1.70;99.90;;;;;;5012202;28;20029;-58
2021/01/16 11:11:28;;;;;;;24.75;10.30;;;1.70;99.90;;;;;;4995492;28;20029;-56
2021/01/16 11:13:54;;;;;;;25.35;9.93;;;1.70;99.90;;;;;;4995561;28;20032;-59
2021/01/16 11:16:22;;;;;;;31.40;10.48;;;1.70;99.90;;;;;;5013055;28;20381;-60
2021/01/16 11:18:48;;;;;;;;;;;1.80;99.90;;;;;;4995363;28;20032;-59
2021/01/16 11:21:56;;;;;;;22.38;10.13;;;1.80;99.90;;;;;;5012988;28;20347;-61
2021/01/16 11:24:42;;;;;;;23.70;9.57;;;1.90;99.90;;;;;;4995322;28;20217;-58
2021/01/16 11:27:16;;;;;;;24.13;10.15;;;1.90;99.90;;;;;;5009136;28;20096;-57
2021/01/16 11:29:42;;;;;;;23.02;10.30;;;1.80;99.90;;;;;;5012589;28;20022;-58
2021/01/16 11:32:18;;;;;;;23.23;8.98;;;1.90;99.90;;;;;;5013023;28;20033;-57
2021/01/16 11:35:07;;;;;;;27.40;10.45;;;1.90;99.90;;;;;;5009312;28;20046;-60
2021/01/16 11:37:48;;;;;;;24.05;9.98;;;2.00;99.90;;;;;;5010679;28;20416;-57
2021/01/16 11:40:31;;;;;;;25.83;10.27;;;2.00;99.90;;;;;;5012423;28;20026;-57
2021/01/16 11:43:14;;;;;;;22.67;9.43;;;2.10;99.90;;;;;;5012512;28;20022;-54
2021/01/16 11:46:05;;;;;;;23.50;10.18;;;2.00;99.90;;;;;;5009052;28;20030;-59
2021/01/16 11:48:32;;;;;;;24.52;9.55;;;2.10;99.90;;;;;;4993742;28;20130;-56
2021/01/16 11:51:06;;;;;;;22.55;9.05;;;2.10;99.90;;;;;;5010179;28;20026;-58
2021/01/16 11:53:32;;;;;;;22.33;10.60;;;2.10;99.90;;;;;;5009447;28;20653;-57
2021/01/16 11:56:03;;;;;;;22.80;9.88;;;2.10;99.90;;;;;;5010660;28;20050;-55
2021/01/16 11:58:29;;;;;;;23.25;10.65;;;2.00;99.90;;;;;;5011647;28;20021;-56
2021/01/16 12:00:58;;;;;;;22.08;10.52;;;2.10;99.90;;;;;;4994387;28;20030;-54
2021/01/16 12:03:29;;;;;;;22.85;10.18;;;2.20;99.90;;;;;;5012102;28;20064;-59
2021/01/16 12:05:55;;;;;;;24.52;10.80;;;2.20;99.90;;;;;;4993886;28;20393;-57
2021/01/16 12:08:22;;;;;;;26.83;11.73;;;2.20;99.90;;;;;;5010952;28;20029;-57
2021/01/16 12:10:50;;;;;;;26.98;11.02;;;2.10;99.90;;;;;;5012402;28;20621;-59
2021/01/16 12:13:16;;;;;;;24.58;11.70;;;2.20;99.90;;;;;;4994458;28;20026;-54
2021/01/16 12:15:42;;;;;;;29.85;13.20;;;2.20;99.90;;;;;;5012370;28;20029;-58
2021/01/16 12:18:10;;;;;;;26.00;12.13;;;2.20;99.90;;;;;;5011886;28;20033;-57
2021/01/16 12:20:35;;;;;;;22.23;9.88;;;2.20;99.90;;;;;;5011528;28;20037;-55
2021/01/16 12:23:02;;;;;;;28.45;11.85;;;2.30;99.90;;;;;;5011817;28;20030;-59
2021/01/16 12:25:30;;;;;;;30.02;12.82;;;2.30;99.90;;;;;;5012158;28;20161;-60
2021/01/16 12:27:56;;;;;;;25.83;11.63;;;2.30;99.90;;;;;;5011975;28;20104;-61
2021/01/16 12:30:23;;;;;;;28.13;12.98;;;2.30;99.90;;;;;;4993960;28;20026;-56
2021/01/16 12:32:50;;;;;;;27.58;11.75;;;2.30;99.90;;;;;;4994110;28;20169;-59
2021/01/16 12:35:23;;;;;;;30.63;12.30;;;2.30;99.90;;;;;;5011626;28;20034;-60
2021/01/16 12:37:48;;;;;;;28.23;12.27;;;2.30;99.90;;;;;;5012217;28;20045;-55
2021/01/16 12:40:17;;;;;;;27.48;11.95;;;2.30;99.90;;;;;;5011580;28;20026;-57
2021/01/16 12:42:43;;;;;;;28.88;12.77;;;2.30;99.90;;;;;;5012253;28;20393;-59
2021/01/16 12:45:11;;;;;;;29.67;12.88;;;2.30;99.90;;;;;;4994872;28;20026;-60
2021/01/16 12:47:39;;;;;;;26.42;12.07;;;2.30;99.90;;;;;;4994290;28;20493;-59
2021/01/16 12:50:07;;;;;;;25.90;12.93;;;2.30;99.90;;;;;;5010924;28;20052;-60
2021/01/16 12:52:33;;;;;;;24.00;11.40;;;2.40;99.90;;;;;;5026443;23;20772;-54
2021/01/16 12:55:00;;;;;;;26.52;12.68;;;2.40;99.90;;;;;;5011917;28;20277;-55
2021/01/16 12:57:34;;;;;;;25.47;11.73;;;2.40;99.90;;;;;;5010743;28;20097;-55
2021/01/16 13:00:00;;;;;;;29.75;11.85;;;2.50;99.90;;;;;;5012027;28;20346;-53